Time;durP1;ratioP1;P1;durP2;ratioP2;P2;SDS_P1;SDS_P2;PMS_P1;PMS_P2;Temp;Humidity;BMP_temperature;BMP_pressure;BME280_temperature;BME280_humidity;BME280_pressure;Samples;Min_cycle;Max_cycle;Signal;HPM_P1;HPM_P2
2023/07/31 00:02:13;;;;;;;1.70;1.70;;;;;;;15.36;92.04;100739.44;4994487;28;20661;-72
2023/07/31 00:04:40;;;;;;;1.50;1.50;;;;;;;15.41;91.31;100733.50;4994348;28;20256;-72
2023/07/31 00:07:06;;;;;;;2.17;2.17;;;;;;;15.33;91.59;100731.72;4994666;28;20533;-72
2023/07/31 00:09:33;;;;;;;2.13;2.10;;;;;;;15.33;91.38;100728.19;4993461;28;20270;-72
2023/07/31 00:12:00;;;;;;;2.07;2.07;;;;;;;15.39;91.78;100724.78;4994329;28;20259;-72
2023/07/31 00:14:26;;;;;;;3.63;3.43;;;;;;;15.34;92.51;100728.00;4994153;28;20559;-71
2023/07/31 00:16:53;;;;;;;3.27;3.17;;;;;;;15.44;92.73;100722.38;4994280;28;20193;-72
2023/07/31 00:19:19;;;;;;;4.53;4.30;;;;;;;15.52;93.18;100716.94;4994202;28;20602;-72
2023/07/31 00:21:45;;;;;;;4.23;4.07;;;;;;;15.66;93.49;100716.09;4994413;28;20193;-72
2023/07/31 00:24:12;;;;;;;8.43;4.37;;;;;;;15.70;93.91;100719.28;4994089;28;20559;-71
2023/07/31 00:26:38;;;;;;;7.20;5.27;;;;;;;15.79;93.85;100707.34;4994092;28;20192;-71
2023/07/31 00:29:05;;;;;;;5.27;4.87;;;;;;;15.89;93.45;100705.22;4994100;28;20331;-71
2023/07/31 00:31:31;;;;;;;7.80;4.60;;;;;;;15.94;93.00;100708.22;4994048;28;20193;-71
2023/07/31 00:33:58;;;;;;;6.93;6.03;;;;;;;16.01;93.27;100703.72;4992846;28;20245;-71
2023/07/31 00:36:24;;;;;;;6.37;5.57;;;;;;;16.02;92.58;100712.66;4994007;28;20607;-71
2023/07/31 00:38:51;;;;;;;4.60;4.20;;;;;;;16.04;92.46;100703.34;4992704;28;20189;-71
2023/07/31 00:41:17;;;;;;;6.43;5.40;;;;;;;16.04;92.89;100708.75;4992700;28;20201;-71
2023/07/31 00:43:44;;;;;;;8.73;5.40;;;;;;;16.08;92.66;100711.94;5008966;28;20263;-71
2023/07/31 00:46:11;;;;;;;6.97;6.27;;;;;;;16.06;92.52;100711.25;4993907;28;20189;-71
2023/07/31 00:48:39;;;;;;;10.47;4.90;;;;;;;16.05;92.60;100707.72;4992629;28;20197;-71
2023/07/31 00:51:07;;;;;;;9.77;5.13;;;;;;;16.10;91.95;100705.31;5008923;28;20610;-71
2023/07/31 00:53:34;;;;;;;12.23;6.97;;;;;;;16.10;91.82;100705.31;4993962;28;20213;-71
2023/07/31 00:56:01;;;;;;;10.50;6.57;;;;;;;16.06;91.91;100701.31;5008906;28;20208;-71
2023/07/31 00:58:27;;;;;;;9.63;6.60;;;;;;;16.13;91.71;100706.78;4992564;28;20605;-71
2023/07/31 01:00:53;;;;;;;10.67;6.17;;;;;;;16.17;91.09;100692.72;5008928;28;20232;-71
2023/07/31 01:03:20;;;;;;;16.80;6.67;;;;;;;16.17;91.50;100700.81;4992383;28;20206;-71
2023/07/31 01:05:56;;;;;;;10.47;6.13;;;;;;;16.19;91.28;100709.56;4993976;28;20189;-71
2023/07/31 01:08:34;;;;;;;8.90;6.13;;;;;;;16.22;90.89;100702.97;4992478;28;20188;-71
2023/07/31 01:11:16;;;;;;;6.97;6.13;;;;;;;16.18;90.75;100705.19;4992472;28;20189;-71
2023/07/31 01:13:44;;;;;;;14.20;5.73;;;;;;;16.26;90.79;100706.94;4993491;28;20216;-71
2023/07/31 01:16:10;;;;;;;11.03;6.60;;;;;;;16.25;90.58;100705.31;4993633;28;20182;-71
2023/07/31 01:18:37;;;;;;;9.60;5.73;;;;;;;16.27;90.29;100705.94;4993615;28;20202;-71
2023/07/31 01:21:22;;;;;;;21.50;6.77;;;;;;;16.19;90.22;100696.09;4995396;28;20196;-71
2023/07/31 01:24:06;;;;;;;7.57;5.87;;;;;;;16.26;90.21;100704.25;4997498;28;20214;-71
2023/07/31 01:26:39;;;;;;;14.47;5.70;;;;;;;16.25;89.98;100700.72;4997703;28;20513;-71
2023/07/31 01:29:14;;;;;;;15.77;4.97;;;;;;;16.23;90.08;100708.19;4996095;28;20626;-71
2023/07/31 01:31:43;;;;;;;12.50;4.83;;;;;;;16.29;89.88;100703.91;4997569;28;20231;-71
2023/07/31 01:34:11;;;;;;;9.70;4.60;;;;;;;16.33;89.48;100705.19;4997098;28;20296;-72
2023/07/31 01:36:37;;;;;;;9.17;5.13;;;;;;;16.30;89.52;100695.59;4995919;28;20252;-73
2023/07/31 01:39:04;;;;;;;10.80;5.23;;;;;;;16.39;89.00;100697.16;4997111;28;20726;-73
2023/07/31 01:41:31;;;;;;;8.43;5.53;;;;;;;16.35;89.22;100693.16;4997072;28;20197;-73
2023/07/31 01:43:57;;;;;;;13.93;5.20;;;;;;;16.40;88.80;100696.13;4995721;28;20213;-73
2023/07/31 01:46:24;;;;;;;6.63;4.70;;;;;;;16.35;88.39;100693.16;5012119;28;20193;-73
2023/07/31 01:48:51;;;;;;;11.60;5.00;;;;;;;16.33;88.86;100691.69;4995710;28;20204;-73
2023/07/31 01:51:18;;;;;;;7.03;5.47;;;;;;;16.40;88.24;100696.13;4996918;28;20231;-73
2023/07/31 01:53:44;;;;;;;9.07;4.63;;;;;;;16.43;88.28;100687.66;4995496;28;20267;-74
2023/07/31 01:56:11;;;;;;;15.53;4.80;;;;;;;16.41;88.01;100694.28;4996835;28;20232;-74
2023/07/31 01:58:38;;;;;;;12.20;4.93;;;;;;;16.45;87.40;100695.56;4997073;28;20269;-73
2023/07/31 02:01:04;;;;;;;9.83;4.67;;;;;;;16.42;87.05;100685.97;5011802;28;20193;-73
2023/07/31 02:03:33;;;;;;;6.20;3.90;;;;;;;16.43;87.68;100690.34;4995611;28;20650;-73
2023/07/31 02:06:00;;;;;;;10.33;4.73;;;;;;;16.43;87.36;100684.94;4996657;28;20261;-72
2023/07/31 02:08:26;;;;;;;11.27;4.57;;;;;;;16.44;86.83;100683.09;4996809;28;20201;-72
2023/07/31 02:10:53;;;;;;;5.93;4.63;;;;;;;16.42;86.46;100685.97;4996541;28;20243;-71
2023/07/31 02:13:20;;;;;;;4.93;4.27;;;;;;;16.37;86.85;100674.94;4995019;28;20225;-71
2023/07/31 02:15:46;;;;;;;14.83;4.80;;;;;;;16.44;87.01;100673.13;4996438;28;20259;-72
2023/07/31 02:18:13;;;;;;;6.90;4.53;;;;;;;16.41;86.23;100678.94;4996946;28;20251;-72
2023/07/31 02:20:39;;;;;;;9.30;4.57;;;;;;;16.43;85.94;100678.72;4996396;28;20628;-73
2023/07/31 02:23:05;;;;;;;12.97;4.43;;;;;;;16.42;85.82;100674.38;4996287;28;20221;-73
2023/07/31 02:25:32;;;;;;;10.87;5.10;;;;;;;16.37;85.58;100672.25;4996332;28;20600;-73
2023/07/31 02:27:58;;;;;;;7.33;4.50;;;;;;;16.38;85.54;100678.44;4996446;28;20193;-73
2023/07/31 02:30:25;;;;;;;10.87;4.60;;;;;;;16.47;85.29;100677.31;4996389;28;20676;-73
2023/07/31 02:32:51;;;;;;;6.33;4.20;;;;;;;16.41;85.70;100676.22;4993924;28;20279;-73
2023/07/31 02:35:18;;;;;;;6.13;4.27;;;;;;;16.38;85.76;100668.50;4995044;28;20217;-73
2023/07/31 02:37:45;;;;;;;6.87;4.20;;;;;;;16.44;85.10;100666.91;4994839;28;20251;-73
2023/07/31 02:40:12;;;;;;;4.83;4.53;;;;;;;16.50;85.22;100674.25;4996279;28;20193;-73
2023/07/31 02:42:39;;;;;;;9.30;4.97;;;;;;;16.51;84.75;100675.91;4995908;28;20216;-73
2023/07/31 02:45:06;;;;;;;12.43;4.77;;;;;;;16.45;84.94;100672.13;4996207;28;20189;-73
2023/07/31 02:47:32;;;;;;;9.00;4.33;;;;;;;16.43;84.54;100676.84;4994618;28;20197;-73
2023/07/31 02:49:59;;;;;;;7.03;4.17;;;;;;;16.40;84.66;100668.31;4994583;28;20656;-73
2023/07/31 02:52:26;;;;;;;8.50;5.10;;;;;;;16.42;84.73;100669.78;4996255;28;20707;-72
2023/07/31 02:54:52;;;;;;;13.40;4.47;;;;;;;16.41;84.66;100667.28;4995938;28;20624;-73
2023/07/31 02:57:18;;;;;;;8.80;4.50;;;;;;;16.43;84.32;100665.22;4994444;28;20193;-73
2023/07/31 02:59:45;;;;;;;6.33;4.57;;;;;;;16.40;84.45;100657.53;4996180;28;20185;-73
2023/07/31 03:02:12;;;;;;;7.73;5.70;;;;;;;16.41;84.31;100662.75;4995618;28;20530;-73
2023/07/31 03:04:39;;;;;;;8.10;5.10;;;;;;;16.43;83.43;100666.06;4995478;28;20209;-73
2023/07/31 03:07:06;;;;;;;19.80;4.27;;;;;;;16.41;83.75;100653.81;4994363;28;20252;-73
2023/07/31 03:09:32;;;;;;;12.40;4.70;;;;;;;16.44;83.96;100654.25;4995423;28;20239;-73
2023/07/31 03:11:59;;;;;;;10.57;5.10;;;;;;;16.44;82.87;100653.41;4993989;28;20208;-72
2023/07/31 03:14:26;;;;;;;6.20;4.60;;;;;;;16.46;82.89;100654.88;4995232;28;20212;-73
2023/07/31 03:16:53;;;;;;;6.57;4.43;;;;;;;16.46;83.36;100649.47;4995281;28;20194;-73
2023/07/31 03:19:20;;;;;;;7.77;4.30;;;;;;;16.48;83.38;100652.00;4995269;28;20276;-73
2023/07/31 03:21:46;;;;;;;8.17;4.57;;;;;;;16.44;83.30;100653.41;4995134;28;20192;-73
2023/07/31 03:24:13;;;;;;;5.20;4.50;;;;;;;16.42;83.07;100645.50;4995142;28;20205;-73
2023/07/31 03:26:41;;;;;;;6.50;4.57;;;;;;;16.48;83.20;100651.16;4993938;28;20259;-73
2023/07/31 03:29:08;;;;;;;14.60;5.40;;;;;;;16.46;83.45;100649.47;4995087;28;20692;-73
2023/07/31 03:31:34;;;;;;;17.97;5.00;;;;;;;16.51;83.10;100654.31;4995279;28;20197;-73
2023/07/31 03:34:01;;;;;;;6.57;5.37;;;;;;;16.57;82.64;100658.97;4993820;28;20268;-73
2023/07/31 03:36:29;;;;;;;10.47;4.43;;;;;;;16.56;83.24;100653.72;4995238;28;20181;-73
2023/07/31 03:38:55;;;;;;;11.43;4.60;;;;;;;16.55;83.33;100654.78;4995450;28;20194;-73
2023/07/31 03:41:22;;;;;;;6.50;5.10;;;;;;;16.57;83.52;100658.13;4994896;28;20236;-73
2023/07/31 03:43:55;;;;;;;11.17;5.33;;;;;;;16.65;83.08;100658.00;4993329;28;20259;-72
2023/07/31 03:46:24;;;;;;;9.00;4.17;;;;;;;16.58;83.23;100657.97;4995106;28;20172;-72
2023/07/31 03:48:51;;;;;;;10.30;4.93;;;;;;;16.64;83.00;100650.94;4994775;28;20177;-73
2023/07/31 03:51:17;;;;;;;14.50;5.07;;;;;;;16.62;82.99;100647.63;4995256;28;20177;-73
2023/07/31 03:53:44;;;;;;;9.33;4.83;;;;;;;16.65;82.85;100653.47;4994780;28;20205;-73
2023/07/31 03:56:11;;;;;;;5.87;4.53;;;;;;;16.66;83.15;100649.72;4994600;28;20224;-73
2023/07/31 03:58:37;;;;;;;8.37;5.47;;;;;;;16.66;83.20;100644.34;4994548;28;20193;-73
2023/07/31 04:01:03;;;;;;;9.77;4.23;;;;;;;16.69;83.45;100646.66;4994529;28;20186;-72
2023/07/31 04:03:30;;;;;;;12.57;4.77;;;;;;;16.79;82.56;100643.63;4994639;28;20263;-72
2023/07/31 04:05:56;;;;;;;11.13;6.17;;;;;;;16.75;83.01;100636.94;4994435;28;20181;-72
2023/07/31 04:08:23;;;;;;;14.13;5.03;;;;;;;16.78;83.06;100648.19;4994384;28;20189;-72
2023/07/31 04:10:50;;;;;;;9.00;4.57;;;;;;;16.80;83.00;100631.81;4994923;28;20193;-72
2023/07/31 04:13:16;;;;;;;8.27;4.77;;;;;;;16.86;82.21;100642.66;4994297;28;20224;-73
2023/07/31 04:15:48;;;;;;;9.93;4.60;;;;;;;16.85;82.08;100640.97;4994768;28;20263;-72
2023/07/31 04:18:15;;;;;;;6.90;3.90;;;;;;;16.92;81.87;100642.91;4994833;28;20188;-72
2023/07/31 04:20:41;;;;;;;13.27;5.70;;;;;;;16.92;81.37;100626.69;4994204;28;20248;-72
2023/07/31 04:23:07;;;;;;;11.70;4.80;;;;;;;16.95;81.31;100631.72;4994129;28;20213;-73
2023/07/31 04:25:34;;;;;;;11.83;5.53;;;;;;;17.00;81.25;100623.84;4994419;28;20674;-73
2023/07/31 04:28:01;;;;;;;8.20;5.00;;;;;;;16.95;81.50;100629.84;4994138;28;20193;-73
2023/07/31 04:30:28;;;;;;;12.63;5.80;;;;;;;16.99;81.52;100623.03;4994391;28;20177;-73
2023/07/31 04:32:54;;;;;;;7.07;4.03;;;;;;;16.97;81.58;100619.69;4994486;28;20691;-72
2023/07/31 04:35:21;;;;;;;11.00;4.40;;;;;;;16.95;81.75;100623.59;4994188;28;20215;-72
2023/07/31 04:37:48;;;;;;;6.73;4.90;;;;;;;17.02;81.83;100621.78;4994258;28;20197;-73
2023/07/31 04:40:16;;;;;;;10.13;5.10;;;;;;;16.99;82.06;100620.31;4994172;28;20181;-73
2023/07/31 04:42:42;;;;;;;5.37;4.93;;;;;;;17.02;82.15;100625.31;4993997;28;20687;-72
2023/07/31 04:45:09;;;;;;;16.60;6.07;;;;;;;17.04;82.04;100615.16;4994204;28;20189;-72
2023/07/31 04:47:36;;;;;;;4.90;4.50;;;;;;;17.03;82.69;100613.50;4994148;28;20528;-73
2023/07/31 04:50:02;;;;;;;10.50;5.57;;;;;;;17.04;82.87;100609.75;4993825;28;20189;-73
2023/07/31 04:52:29;;;;;;;12.70;5.37;;;;;;;17.02;83.00;100619.91;4993744;28;20192;-73
2023/07/31 04:54:55;;;;;;;14.40;5.50;;;;;;;16.99;83.54;100620.31;4993804;28;20216;-74
2023/07/31 04:57:21;;;;;;;10.00;5.47;;;;;;;17.00;83.92;100619.28;4996745;28;20197;-74
2023/07/31 04:59:48;;;;;;;11.03;5.13;;;;;;;16.97;84.50;100608.88;4998002;28;20185;-75
2023/07/31 05:02:16;;;;;;;8.23;6.17;;;;;;;16.96;84.63;100609.91;4997807;28;20599;-74
2023/07/31 05:04:43;;;;;;;17.23;5.63;;;;;;;16.93;84.76;100610.28;4997711;28;20201;-74
2023/07/31 05:07:09;;;;;;;8.70;7.07;;;;;;;16.90;85.63;100605.28;4997976;28;20240;-74
2023/07/31 05:09:36;;;;;;;9.50;5.83;;;;;;;16.88;85.70;100597.41;4997729;28;20196;-74
2023/07/31 05:12:05;;;;;;;17.73;6.63;;;;;;;16.93;85.71;100602.19;4997990;28;20200;-74
2023/07/31 05:14:31;;;;;;;11.23;6.27;;;;;;;17.00;85.35;100592.28;4997467;28;20212;-74
2023/07/31 05:16:57;;;;;;;10.40;6.10;;;;;;;17.02;85.51;100592.91;4997843;28;20359;-74
2023/07/31 05:19:24;;;;;;;10.77;5.20;;;;;;;16.96;85.45;100591.00;4997559;28;20277;-73
2023/07/31 05:21:50;;;;;;;8.73;5.97;;;;;;;17.04;85.12;100584.63;4997497;28;20719;-72
2023/07/31 05:24:17;;;;;;;8.57;5.53;;;;;;;17.06;85.00;100590.66;4997326;28;20221;-71
2023/07/31 05:26:43;;;;;;;5.97;5.63;;;;;;;16.95;85.55;100581.22;4997905;28;20181;-71
2023/07/31 05:29:09;;;;;;;8.37;5.90;;;;;;;17.07;85.01;100584.22;4997871;28;20236;-72
2023/07/31 05:31:38;;;;;;;11.90;5.33;;;;;;;17.05;85.29;100578.19;4997192;28;20193;-72
2023/07/31 05:34:04;;;;;;;5.83;5.50;;;;;;;16.99;85.55;100584.38;4997079;28;20263;-72
2023/07/31 05:36:31;;;;;;;6.17;5.77;;;;;;;17.02;85.32;100576.69;4997196;28;20601;-71
2023/07/31 05:38:57;;;;;;;5.97;5.40;;;;;;;17.02;85.48;100571.31;4997693;28;20609;-72
2023/07/31 05:41:24;;;;;;;11.83;5.47;;;;;;;17.02;85.42;100574.00;4995867;28;20185;-71
2023/07/31 05:43:51;;;;;;;5.50;5.00;;;;;;;17.06;85.86;100569.06;4996991;28;20220;-71
2023/07/31 05:46:17;;;;;;;9.40;5.00;;;;;;;16.99;86.38;100570.88;4997279;28;20200;-71
2023/07/31 05:48:44;;;;;;;5.80;5.33;;;;;;;16.85;86.63;100564.53;4997031;28;20197;-71
2023/07/31 05:51:11;;;;;;;19.80;5.53;;;;;;;16.79;87.18;100557.22;4997179;28;20548;-71
2023/07/31 05:53:40;;;;;;;8.03;4.57;;;;;;;16.67;87.57;100567.72;4996823;28;20209;-71
2023/07/31 05:56:07;;;;;;;10.13;4.90;;;;;;;16.67;87.46;100551.53;4996747;28;20604;-71
2023/07/31 05:58:33;;;;;;;7.43;5.70;;;;;;;16.60;88.17;100555.19;4996807;28;20180;-71
2023/07/31 06:01:00;;;;;;;8.50;6.10;;;;;;;16.60;89.08;100552.47;4997021;28;20236;-71
2023/07/31 06:03:26;;;;;;;10.43;6.00;;;;;;;16.69;88.61;100562.13;4996905;28;20241;-71
2023/07/31 06:05:53;;;;;;;7.70;6.00;;;;;;;16.64;88.72;100559.16;4997112;28;20565;-71
2023/07/31 06:08:19;;;;;;;11.97;6.83;;;;;;;16.56;89.31;100553.88;4997170;28;20192;-72
2023/07/31 06:10:46;;;;;;;13.17;6.80;;;;;;;16.50;89.79;100554.66;4996462;28;20652;-72
2023/07/31 06:13:12;;;;;;;7.43;6.60;;;;;;;16.45;90.09;100550.69;4996328;28;20300;-72
2023/07/31 06:15:39;;;;;;;9.60;6.33;;;;;;;16.45;90.13;100544.44;4996357;28;20691;-72
2023/07/31 06:18:07;;;;;;;6.43;5.60;;;;;;;16.38;90.12;100546.25;4995502;28;20202;-72
2023/07/31 06:20:34;;;;;;;8.43;6.60;;;;;;;16.35;90.84;100543.94;4996689;28;20189;-72
2023/07/31 06:23:01;;;;;;;10.37;7.13;;;;;;;16.41;91.11;100545.88;4996295;28;20209;-72
2023/07/31 06:25:27;;;;;;;7.97;7.17;;;;;;;16.42;91.49;100542.97;4996850;28;20189;-72
2023/07/31 06:27:54;;;;;;;10.77;7.37;;;;;;;16.52;91.22;100541.78;4996542;28;20193;-72
2023/07/31 06:30:20;;;;;;;7.63;6.97;;;;;;;16.61;91.00;100540.66;4996237;28;20200;-72
2023/07/31 06:32:47;;;;;;;10.13;7.17;;;;;;;16.62;91.10;100540.47;4996584;28;20213;-72
2023/07/31 06:35:13;;;;;;;16.27;6.53;;;;;;;16.69;90.41;100532.41;4996271;28;20193;-73
2023/07/31 06:37:40;;;;;;;6.83;6.33;;;;;;;16.58;90.97;100533.81;4996285;28;20719;-73
2023/07/31 06:40:08;;;;;;;7.90;7.10;;;;;;;16.62;90.77;100535.09;4996071;28;20185;-73
2023/07/31 06:42:36;;;;;;;6.70;6.23;;;;;;;16.63;90.81;100541.31;4996409;28;20191;-73
2023/07/31 06:45:02;;;;;;;7.27;5.57;;;;;;;16.55;90.89;100533.34;4996212;28;20552;-73
2023/07/31 06:47:29;;;;;;;8.77;5.90;;;;;;;16.53;91.12;100529.97;4996415;28;20531;-73
2023/07/31 06:49:56;;;;;;;6.20;5.67;;;;;;;16.55;91.17;100536.03;4996650;28;20197;-73
2023/07/31 06:52:22;;;;;;;6.53;5.43;;;;;;;16.59;90.94;100519.25;4995770;28;20555;-73
2023/07/31 06:55:02;;;;;;;5.73;5.43;;;;;;;16.53;90.97;100530.81;4995708;28;20209;-73
2023/07/31 06:57:29;;;;;;;6.40;5.77;;;;;;;16.60;90.44;100520.09;4995783;28;20189;-73
2023/07/31 06:59:55;;;;;;;6.50;5.67;;;;;;;16.55;90.78;100527.94;4996211;28;20189;-73
2023/07/31 07:02:22;;;;;;;6.43;5.57;;;;;;;16.61;90.75;100540.66;4995803;28;20656;-72
2023/07/31 07:04:49;;;;;;;5.43;5.07;;;;;;;16.58;90.73;100531.09;4995589;28;20681;-72
2023/07/31 07:07:16;;;;;;;5.47;5.00;;;;;;;16.57;90.69;100532.13;4995782;28;20273;-72
2023/07/31 07:09:43;;;;;;;6.60;5.43;;;;;;;16.60;90.80;100541.69;4995517;28;20244;-73
2023/07/31 07:12:09;;;;;;;5.53;4.93;;;;;;;16.69;90.57;100525.16;4995281;28;20201;-72
2023/07/31 07:14:36;;;;;;;5.80;5.40;;;;;;;16.71;90.33;100523.13;4995519;28;20213;-72
2023/07/31 07:17:02;;;;;;;6.17;5.67;;;;;;;16.62;90.74;100520.75;4995196;28;20201;-73
2023/07/31 07:19:29;;;;;;;5.80;5.23;;;;;;;16.64;90.71;100526.78;4995186;28;20279;-73
2023/07/31 07:21:56;;;;;;;8.03;5.73;;;;;;;16.67;90.79;100523.69;4995315;28;20173;-72
2023/07/31 07:24:22;;;;;;;5.67;5.27;;;;;;;16.55;90.99;100526.03;4995533;28;20624;-73
2023/07/31 07:26:49;;;;;;;5.27;4.73;;;;;;;16.58;91.26;100519.47;4995418;28;20185;-73
2023/07/31 07:29:15;;;;;;;6.23;5.60;;;;;;;16.60;91.25;100517.41;4995130;28;20189;-73
2023/07/31 07:31:41;;;;;;;5.83;5.30;;;;;;;16.63;91.24;100514.31;4995025;28;20189;-72
2023/07/31 07:34:08;;;;;;;5.83;5.53;;;;;;;16.63;91.24;100515.16;4995093;28;20213;-72
2023/07/31 07:36:34;;;;;;;5.57;5.17;;;;;;;16.67;90.93;100519.13;4995101;28;20220;-72
2023/07/31 07:39:01;;;;;;;9.50;5.03;;;;;;;16.61;91.77;100505.56;4995689;28;20177;-72
2023/07/31 07:41:27;;;;;;;5.77;5.53;;;;;;;16.73;90.91;100517.50;4995179;28;20649;-72
2023/07/31 07:43:54;;;;;;;6.80;6.23;;;;;;;16.72;91.16;100515.84;4994720;28;20209;-72
2023/07/31 07:46:20;;;;;;;5.40;5.27;;;;;;;16.70;91.47;100520.59;4994850;28;20185;-72
2023/07/31 07:48:47;;;;;;;5.13;4.67;;;;;;;16.70;91.22;100513.34;4994727;28;20205;-72
2023/07/31 07:51:13;;;;;;;7.60;5.60;;;;;;;16.73;91.18;100517.50;4994759;28;20602;-72
2023/07/31 07:53:40;;;;;;;5.90;5.40;;;;;;;16.69;91.02;100521.63;4994582;28;20213;-72
2023/07/31 07:56:06;;;;;;;6.37;5.87;;;;;;;16.81;90.63;100520.88;4994554;28;20209;-72
2023/07/31 07:58:33;;;;;;;9.33;5.80;;;;;;;16.68;91.03;100512.69;4994594;28;20189;-72
2023/07/31 08:00:59;;;;;;;10.03;5.37;;;;;;;16.67;91.47;100507.50;4995025;28;20200;-72
2023/07/31 08:03:26;;;;;;;5.50;5.20;;;;;;;16.70;91.33;100518.75;4994657;28;20300;-72
2023/07/31 08:05:58;;;;;;;4.77;4.67;;;;;;;16.74;91.33;100508.38;4994670;28;20209;-72
2023/07/31 08:08:24;;;;;;;5.23;4.87;;;;;;;16.71;91.05;100503.38;4995046;28;20616;-72
2023/07/31 08:10:51;;;;;;;5.03;4.83;;;;;;;16.72;90.76;100511.25;4994438;28;20189;-72
2023/07/31 08:13:17;;;;;;;5.07;4.97;;;;;;;16.68;90.91;100512.69;4994198;28;20235;-72
2023/07/31 08:15:44;;;;;;;5.20;4.87;;;;;;;16.65;91.11;100502.28;4994517;28;20607;-72
2023/07/31 08:18:13;;;;;;;4.70;4.40;;;;;;;16.66;91.00;100503.13;4994214;28;20235;-72
2023/07/31 08:20:40;;;;;;;5.20;4.90;;;;;;;16.63;90.95;100504.38;4994808;28;20198;-72
2023/07/31 08:23:06;;;;;;;4.13;3.93;;;;;;;16.59;90.66;100491.47;4994133;28;20695;-72
2023/07/31 08:25:36;;;;;;;4.30;4.03;;;;;;;16.50;91.49;100498.00;4994129;28;20682;-72
2023/07/31 08:28:04;;;;;;;8.00;3.40;;;;;;;16.52;91.76;100495.91;4994405;28;20644;-72
2023/07/31 08:30:32;;;;;;;6.30;3.17;;;;;;;16.59;91.18;100502.25;4993476;28;20656;-72
2023/07/31 08:32:58;;;;;;;4.53;3.97;;;;;;;16.59;91.23;100494.16;4994048;28;20284;-72
2023/07/31 08:35:26;;;;;;;4.30;4.20;;;;;;;16.58;91.12;100498.72;4994251;28;20244;-72
2023/07/31 08:37:52;;;;;;;4.40;3.90;;;;;;;16.57;91.20;100497.03;4994012;28;20185;-72
2023/07/31 08:40:19;;;;;;;3.40;3.40;;;;;;;16.53;91.29;100492.19;4993957;28;20196;-72
2023/07/31 08:42:47;;;;;;;3.30;3.20;;;;;;;16.45;91.39;100488.63;4994410;28;20272;-72
2023/07/31 08:45:17;;;;;;;4.33;3.97;;;;;;;16.46;91.32;100487.56;4993916;28;20185;-72
2023/07/31 08:47:50;;;;;;;3.50;3.30;;;;;;;16.42;91.48;100483.59;4993947;28;20173;-72
2023/07/31 08:50:19;;;;;;;3.87;3.47;;;;;;;16.42;91.46;100472.81;4994402;28;20275;-72
2023/07/31 08:52:47;;;;;;;3.37;3.27;;;;;;;16.46;91.12;100492.16;4994275;28;20714;-72
2023/07/31 08:55:14;;;;;;;5.53;3.60;;;;;;;16.39;91.29;100488.56;4993745;28;20181;-72
2023/07/31 08:57:42;;;;;;;3.93;3.27;;;;;;;16.40;91.27;100485.66;4994070;28;20200;-72
2023/07/31 09:00:10;;;;;;;3.67;3.57;;;;;;;16.35;91.30;100489.97;4993800;28;20200;-72
2023/07/31 09:02:51;;;;;;;4.80;4.60;;;;;;;16.31;91.96;100494.09;4993742;28;20185;-72
2023/07/31 09:05:21;;;;;;;3.60;3.43;;;;;;;16.34;91.88;100502.63;4994011;28;20177;-72
2023/07/31 09:07:50;;;;;;;5.00;3.67;;;;;;;16.34;92.19;100489.13;4994269;28;20185;-72
2023/07/31 09:10:16;;;;;;;4.33;4.13;;;;;;;16.36;92.36;100494.34;4993716;28;20189;-72
2023/07/31 09:12:44;;;;;;;6.93;4.87;;;;;;;16.40;92.49;100491.06;4993484;28;20766;-72
2023/07/31 09:15:11;;;;;;;3.70;3.60;;;;;;;16.41;92.30;100487.34;4993582;28;20247;-72
2023/07/31 09:18:01;;;;;;;3.77;3.57;;;;;;;16.43;92.25;100487.13;4993684;28;20261;-72
2023/07/31 09:20:28;;;;;;;4.33;4.00;;;;;;;16.36;92.11;100484.41;4993588;28;20195;-72
2023/07/31 09:22:56;;;;;;;6.87;4.10;;;;;;;16.41;91.64;100487.34;4993747;28;20209;-72
2023/07/31 09:25:26;;;;;;;4.63;4.23;;;;;;;16.51;91.90;100488.88;4993557;28;20555;-72
2023/07/31 09:28:01;;;;;;;3.83;3.70;;;;;;;16.50;91.75;100479.94;4994108;28;20565;-72
2023/07/31 09:30:27;;;;;;;4.50;4.20;;;;;;;16.54;91.75;100481.22;4992859;28;20224;-72
2023/07/31 09:33:03;;;;;;;3.10;3.00;;;;;;;16.56;91.59;100476.44;4993652;28;20213;-72
2023/07/31 09:35:32;;;;;;;3.37;3.30;;;;;;;16.58;91.61;100477.13;4993912;28;20224;-72
2023/07/31 09:38:02;;;;;;;3.70;3.17;;;;;;;16.53;92.00;100481.41;4993761;28;20672;-72
2023/07/31 09:40:30;;;;;;;3.50;3.40;;;;;;;16.46;92.11;100465.19;4994202;28;20193;-72
2023/07/31 09:42:58;;;;;;;4.00;3.97;;;;;;;16.48;92.28;100462.25;4997076;28;20209;-72
2023/07/31 09:45:25;;;;;;;3.20;3.00;;;;;;;16.50;92.47;100474.53;4997040;28;20196;-72
2023/07/31 09:48:10;;;;;;;2.47;2.47;;;;;;;16.75;91.66;100472.25;4997615;28;20177;-72
2023/07/31 09:50:39;;;;;;;3.40;3.10;;;;;;;16.68;92.17;100474.91;4997010;28;20189;-72
2023/07/31 09:53:07;;;;;;;3.13;2.93;;;;;;;16.68;92.19;100466.78;4996850;28;20209;-72
2023/07/31 09:55:34;;;;;;;3.17;3.17;;;;;;;16.64;92.34;100456.59;4996783;28;20653;-72
2023/07/31 09:58:05;;;;;;;2.70;2.70;;;;;;;16.71;92.12;100465.59;4996842;28;20623;-72
2023/07/31 10:00:33;;;;;;;2.93;2.83;;;;;;;16.63;92.29;100466.59;4996814;28;20192;-72
2023/07/31 10:03:07;;;;;;;3.87;3.40;;;;;;;16.62;92.72;100467.59;4996966;28;20687;-72
2023/07/31 10:05:42;;;;;;;2.87;2.77;;;;;;;16.65;92.33;100464.50;4997094;28;20189;-72
2023/07/31 10:08:13;;;;;;;8.93;3.50;;;;;;;16.68;92.38;100449.75;4996726;28;20639;-72
2023/07/31 10:10:45;;;;;;;3.90;2.97;;;;;;;16.70;92.44;100453.13;4996638;28;20180;-72
2023/07/31 10:13:13;;;;;;;3.77;3.67;;;;;;;16.70;92.57;100447.72;4996488;28;20232;-72
2023/07/31 10:15:43;;;;;;;2.73;2.53;;;;;;;16.69;92.30;100463.06;4995173;28;20234;-72
2023/07/31 10:18:12;;;;;;;3.37;3.23;;;;;;;16.71;92.28;100457.50;4996781;28;20186;-73
2023/07/31 10:20:40;;;;;;;2.93;2.93;;;;;;;16.79;91.83;100458.16;4996447;28;20300;-72
2023/07/31 10:23:06;;;;;;;6.47;3.07;;;;;;;16.76;92.48;100455.03;4996327;28;20213;-72
2023/07/31 10:25:34;;;;;;;2.80;2.60;;;;;;;16.80;92.31;100462.50;4996801;28;20189;-72
2023/07/31 10:28:00;;;;;;;3.30;3.10;;;;;;;16.73;92.75;100456.25;4996588;28;20197;-72
2023/07/31 10:30:33;;;;;;;3.90;3.53;;;;;;;16.79;92.39;100455.47;4996250;28;20195;-72
2023/07/31 10:33:00;;;;;;;3.37;3.27;;;;;;;16.94;92.20;100457.19;4995468;28;20221;-72
2023/07/31 10:35:27;;;;;;;6.23;3.20;;;;;;;16.87;91.88;100452.59;4996080;28;20200;-72
2023/07/31 10:37:54;;;;;;;8.17;4.63;;;;;;;16.84;91.76;100458.41;4996350;28;20219;-72
2023/07/31 10:40:26;;;;;;;5.30;4.83;;;;;;;16.83;92.01;100453.19;4996376;28;20538;-72
2023/07/31 10:42:53;;;;;;;4.97;4.87;;;;;;;16.91;91.97;100450.34;4996191;28;20684;-72
2023/07/31 10:45:37;;;;;;;4.70;4.70;;;;;;;16.80;91.99;100443.59;4996249;28;20189;-72
2023/07/31 10:48:05;;;;;;;6.67;6.30;;;;;;;16.87;91.56;100458.00;4996166;28;20554;-72
2023/07/31 10:50:55;;;;;;;5.67;5.57;;;;;;;16.93;91.61;100450.94;4995780;28;20201;-72
2023/07/31 10:53:30;;;;;;;6.33;5.93;;;;;;;16.93;91.42;100450.94;4994890;28;20296;-72
2023/07/31 10:56:01;;;;;;;7.57;7.10;;;;;;;17.00;91.64;100451.00;4996013;28;20553;-72
2023/07/31 10:58:28;;;;;;;7.43;6.77;;;;;;;17.02;91.60;100449.75;4995711;28;20204;-72
2023/07/31 11:00:56;;;;;;;7.33;7.03;;;;;;;16.97;91.52;100444.16;4995988;28;20531;-72
2023/07/31 11:03:27;;;;;;;6.93;6.43;;;;;;;16.99;91.79;100439.38;4995544;28;20205;-72
2023/07/31 11:06:03;;;;;;;17.53;7.20;;;;;;;17.06;91.58;100447.50;4996157;28;20174;-72
2023/07/31 11:08:35;;;;;;;7.70;7.13;;;;;;;17.08;91.42;100451.66;4995544;28;20197;-72
2023/07/31 11:11:01;;;;;;;13.17;7.27;;;;;;;17.12;91.41;100452.94;4995811;28;20543;-72
2023/07/31 11:13:29;;;;;;;8.00;7.47;;;;;;;17.18;90.69;100444.03;4995516;28;20217;-72
2023/07/31 11:15:56;;;;;;;6.87;6.47;;;;;;;17.27;90.29;100448.22;4995595;28;20221;-72
2023/07/31 11:18:22;;;;;;;7.13;6.80;;;;;;;17.27;90.29;100448.22;4995614;28;20240;-72
2023/07/31 11:20:49;;;;;;;7.87;7.13;;;;;;;17.29;90.39;100448.03;4995305;28;20188;-73
2023/07/31 11:23:17;;;;;;;6.03;5.90;;;;;;;17.30;90.49;100441.59;4995374;28;20688;-72
2023/07/31 11:25:45;;;;;;;8.50;6.57;;;;;;;17.27;89.84;100450.09;4995161;28;20276;-73
2023/07/31 11:28:16;;;;;;;6.03;5.73;;;;;;;17.32;90.02;100451.16;4994431;28;20189;-73